Altenstadt Army Airfield ETHA

Flugplatz Daten

Name: Altenstadt Army Airfield

Ident: ETHA

Lat: 47,83549881

Long: 10,87119961

Platzhöhe: 2425 ft

IataCode:

City: Altenstadt

Metar

2021/10/16 18:20
ETHA 161820Z AUTO 06002KT //// // ////// 07/05 Q1020 ///

Taf

2019/01/22 09:25
TAF ETHA 220820Z 2209/2308 VRB03KT 1500 BR OVC001
BECMG 2209/2211 12005KT 3000 BR BKN005
TEMPO 2212/2215 08005KT 6000 NSW SCT008
Gewünschte Webcam nicht vorhanden? Dann fügen Sie eine hinzu. Sie wird dann so schnell wie möglich freigeschaltet
Url: Title: